Time;durP1;ratioP1;P1;durP2;ratioP2;P2;SDS_P1;SDS_P2;PMS_P1;PMS_P2;Temp;Humidity;BMP_temperature;BMP_pressure;BME280_temperature;BME280_humidity;BME280_pressure;Samples;Min_cycle;Max_cycle;Signal;HPM_P1;HPM_P2
2024/01/01 00:00:55;;;;;;;;;;;;;;;3.73;100.00;95035.59;10595481;27;1972;-65
2024/01/01 00:06:02;;;;;;;;;;;;;;;3.76;100.00;95036.97;10579402;27;2005;-66
2024/01/01 00:11:05;;;;;;;;;;;;;;;3.79;100.00;95018.66;10586619;27;1924;-64
2024/01/01 00:16:14;;;;;;;;;;;;;;;3.80;100.00;95016.78;10577183;27;2100;-66
2024/01/01 00:21:22;;;;;;;;;;;;;;;3.78;100.00;95011.72;10591236;27;1996;-64
2024/01/01 00:26:25;;;;;;;;;;;;;;;3.74;100.00;95018.59;10600391;27;2000;-65
2024/01/01 00:31:32;;;;;;;;;;;;;;;3.72;100.00;95011.91;10586353;27;2115;-65
2024/01/01 00:36:36;;;;;;;;;;;;;;;3.75;100.00;95019.38;10599961;27;2286;-64
2024/01/01 00:41:41;;;;;;;;;;;;;;;3.72;100.00;95011.91;10573620;27;2092;-65
2024/01/01 00:46:46;;;;;;;;;;;;;;;3.72;100.00;95006.59;10597541;27;2051;-65
2024/01/01 00:51:50;;;;;;;;;;;;;;;3.76;100.00;95019.16;10596546;27;2070;-66
2024/01/01 00:56:54;;;;;;;;;;;;;;;3.73;100.00;95016.97;10577441;27;5093;-66
2024/01/01 01:02:01;;;;;;;;;;;;;;;3.72;100.00;95015.38;10582526;27;2082;-65
2024/01/01 01:07:07;;;;;;;;;;;;;;;3.76;100.00;95011.19;10591608;27;2028;-65
2024/01/01 01:12:18;;;;;;;;;;;;;;;3.76;100.00;95021.81;10584841;27;2012;-66
2024/01/01 01:17:23;;;;;;;;;;;;;;;3.76;100.00;95019.16;10605005;27;1931;-66
2024/01/01 01:22:27;;;;;;;;;;;;;;;3.80;100.00;95014.94;10617388;27;2049;-73
2024/01/01 01:27:30;;;;;;;;;;;;;;;3.79;100.00;95037.25;10603652;27;2067;-66
2024/01/01 01:32:36;;;;;;;;;;;;;;;3.79;100.00;95031.94;10598427;27;2553;-66
2024/01/01 01:37:41;;;;;;;;;;;;;;;3.82;100.00;95029.81;10592798;27;1925;-65
2024/01/01 01:42:47;;;;;;;;;;;;;;;3.82;100.00;95043.94;10604775;27;2095;-67
2024/01/01 01:47:51;;;;;;;;;;;;;;;3.75;100.00;95041.47;10587637;27;2020;-71
2024/01/01 01:52:54;;;;;;;;;;;;;;;3.74;100.00;95044.38;10601119;27;1877;-71
2024/01/01 01:57:57;;;;;;;;;;;;;;;3.68;100.00;95045.34;10576164;27;4947;-67
2024/01/01 02:03:02;;;;;;;;;;;;;;;3.66;100.00;95048.28;10597491;27;1902;-65
2024/01/01 02:08:05;;;;;;;;;;;;;;;3.58;100.00;95040.75;10596775;27;2004;-64
2024/01/01 02:13:09;;;;;;;;;;;;;;;3.55;100.00;95035.91;10598532;27;1896;-64
2024/01/01 02:18:13;;;;;;;;;;;;;;;3.50;100.00;95041.97;10585917;27;2020;-65
2024/01/01 02:23:19;;;;;;;;;;;;;;;3.47;100.00;95049.63;10584215;27;3412;-64
2024/01/01 02:28:25;;;;;;;;;;;;;;;3.36;100.00;95050.53;10582229;27;2071;-66
2024/01/01 02:33:33;;;;;;;;;;;;;;;3.28;100.00;95035.03;10585487;27;2083;-65
2024/01/01 02:38:36;;;;;;;;;;;;;;;3.22;100.00;95040.28;10584803;27;2023;-64
2024/01/01 02:43:42;;;;;;;;;;;;;;;3.18;100.00;95028.56;10592825;27;2029;-65
2024/01/01 02:48:46;;;;;;;;;;;;;;;3.08;100.00;95031.06;10583938;27;1859;-65
2024/01/01 02:53:49;;;;;;;;;;;;;;;3.00;100.00;95034.13;10594812;27;1966;-65
2024/01/01 02:59:08;;;;;;;;;;;;;;;2.94;100.00;95035.09;10581213;27;5169;-65
2024/01/01 03:04:11;;;;;;;;;;;;;;;2.94;100.00;95029.78;10586520;27;2060;-66
2024/01/01 03:09:15;;;;;;;;;;;;;;;2.88;100.00;95020.94;10579789;27;1976;-65
2024/01/01 03:14:21;;;;;;;;;;;;;;;2.84;100.00;95024.31;10601680;27;1909;-65
2024/01/01 03:19:24;;;;;;;;;;;;;;;2.81;100.00;95019.53;10590820;27;1931;-65
2024/01/01 03:24:28;;;;;;;;;;;;;;;2.81;100.00;95009.69;10580850;27;1965;-65
2024/01/01 03:29:32;;;;;;;;;;;;;;;2.85;100.00;95005.50;10574770;27;1927;-65
2024/01/01 03:34:35;;;;;;;;;;;;;;;2.74;100.00;95002.97;10580895;27;2100;-65
2024/01/01 03:39:38;;;;;;;;;;;;;;;2.76;100.00;95000.84;10581921;27;2090;-65
2024/01/01 03:44:41;;;;;;;;;;;;;;;2.64;100.00;94988.47;10592191;27;2247;-65
2024/01/01 03:49:45;;;;;;;;;;;;;;;2.63;100.00;94996.69;10593342;27;2018;-66
2024/01/01 03:54:48;;;;;;;;;;;;;;;2.62;100.00;94995.09;10588571;27;1890;-65
2024/01/01 03:59:53;;;;;;;;;;;;;;;2.61;100.00;94988.19;10592454;27;5073;-65
2024/01/01 04:04:57;;;;;;;;;;;;;;;2.61;100.00;94991.63;10593857;27;1953;-65
2024/01/01 04:10:01;;;;;;;;;;;;;;;2.63;100.00;94988.72;10601405;27;1886;-64
2024/01/01 04:15:05;;;;;;;;;;;;;;;2.54;100.00;94987.50;10579300;27;1907;-65
2024/01/01 04:20:10;;;;;;;;;;;;;;;2.46;100.00;95004.66;10600668;27;2087;-66
2024/01/01 04:25:14;;;;;;;;;;;;;;;2.46;100.00;95009.94;10597836;27;1979;-66
2024/01/01 04:30:18;;;;;;;;;;;;;;;2.50;100.00;95011.09;10597648;27;1985;-69
2024/01/01 04:35:22;;;;;;;;;;;;;;;2.52;100.00;95016.16;10599677;27;1944;-72
2024/01/01 04:40:27;;;;;;;;;;;;;;;2.49;100.00;95021.94;10590848;27;2308;-67
2024/01/01 04:45:31;;;;;;;;;;;;;;;2.54;100.00;95033.41;10605714;27;1977;-65
2024/01/01 04:50:34;;;;;;;;;;;;;;;2.77;100.00;95029.00;10599772;27;2019;-65
2024/01/01 04:55:37;;;;;;;;;;;;;;;2.84;100.00;95035.75;10618473;27;1878;-66
2024/01/01 05:00:43;;;;;;;;;;;;;;;2.87;100.00;95037.94;10607216;27;5402;-65
2024/01/01 05:05:48;;;;;;;;;;;;;;;2.77;100.00;95047.59;10623499;27;1990;-69
2024/01/01 05:10:51;;;;;;;;;;;;;;;2.76;100.00;95044.13;10592879;27;2066;-65
2024/01/01 05:15:58;;;;;;;;;;;;;;;2.70;100.00;95043.25;10592676;27;2119;-64
2024/01/01 05:21:04;;;;;;;;;;;;;;;2.73;100.00;95044.59;10605416;27;2046;-65
2024/01/01 05:26:08;;;;;;;;;;;;;;;2.63;100.00;95063.84;10589812;27;1970;-65
2024/01/01 05:31:18;;;;;;;;;;;;;;;2.64;100.00;95068.09;10590685;27;1972;-64
2024/01/01 05:36:21;;;;;;;;;;;;;;;2.91;100.00;95068.22;10588512;27;2380;-65
2024/01/01 05:41:26;;;;;;;;;;;;;;;3.17;100.00;95072.06;10583423;27;1946;-63
2024/01/01 05:46:32;;;;;;;;;;;;;;;3.47;100.00;95073.53;10608849;27;2175;-65
2024/01/01 05:51:35;;;;;;;;;;;;;;;3.60;100.00;95075.84;10586514;27;2039;-65
2024/01/01 05:56:38;;;;;;;;;;;;;;;3.69;100.00;95085.00;10596778;27;5128;-65
2024/01/01 06:01:41;;;;;;;;;;;;;;;3.69;100.00;95085.00;10604016;27;2047;-65
2024/01/01 06:06:44;;;;;;;;;;;;;;;3.74;100.00;95097.53;10598433;27;2067;-64
2024/01/01 06:11:50;;;;;;;;;;;;;;;3.58;100.00;95119.66;10580026;27;2098;-63
2024/01/01 06:16:54;;;;;;;;;;;;;;;3.51;100.00;95127.81;10582077;27;2099;-63
2024/01/01 06:21:59;;;;;;;;;;;;;;;3.73;100.00;95133.13;10593411;27;2019;-65
2024/01/01 06:27:02;;;;;;;;;;;;;;;3.90;100.00;95135.75;10593624;27;1939;-64
2024/01/01 06:32:05;;;;;;;;;;;;;;;3.87;100.00;95125.59;10594689;27;2309;-64
2024/01/01 06:37:10;;;;;;;;;;;;;;;3.73;100.00;95139.25;10579937;27;1930;-64
2024/01/01 06:42:15;;;;;;;;;;;;;;;3.75;100.00;95145.16;10585431;27;2099;-64
2024/01/01 06:47:22;;;;;;;;;;;;;;;3.86;100.00;95153.25;10607072;27;2261;-64
2024/01/01 06:52:25;;;;;;;;;;;;;;;3.89;100.00;95153.56;10593137;27;2215;-64
2024/01/01 06:57:28;;;;;;;;;;;;;;;3.95;100.00;95173.06;10601762;27;5113;-63
2024/01/01 07:02:33;;;;;;;;;;;;;;;3.99;100.00;95179.47;10600272;27;1964;-70
2024/01/01 07:07:36;;;;;;;;;;;;;;;3.90;100.00;95180.97;10586291;27;2047;-65
2024/01/01 07:12:39;;;;;;;;;;;;;;;3.82;100.00;95192.00;10599502;27;1981;-64
2024/01/01 07:17:50;;;;;;;;;;;;;;;3.72;100.00;95201.44;10605132;27;1974;-64
2024/01/01 07:23:00;;;;;;;;;;;;;;;3.72;100.00;95206.78;10577000;27;2102;-64
2024/01/01 07:28:04;;;;;;;;;;;;;;;3.74;100.00;95201.19;10599710;27;2119;-63
2024/01/01 07:33:13;;;;;;;;;;;;;;;3.66;100.00;95193.66;10519130;27;1998;-65
2024/01/01 07:38:16;;;;;;;;;;;;;;;3.52;100.00;95187.88;10513737;28;1916;-64
2024/01/01 07:43:18;;;;;;;;;;;;;;;3.46;100.00;95191.50;10512929;28;1821;-65
2024/01/01 07:48:21;;;;;;;;;;;;;;;3.46;100.00;95181.69;10511811;28;2094;-66
2024/01/01 07:53:23;;;;;;;;;;;;;;;3.42;100.00;95180.53;10513152;28;2097;-63
2024/01/01 07:58:26;;;;;;;;;;;;;;;3.43;100.00;95191.97;10501383;28;5046;-65
2024/01/01 08:03:28;;;;;;;;;;;;;;;3.40;100.00;95195.13;10518665;28;1856;-64
2024/01/01 08:08:30;;;;;;;;;;;;;;;3.44;100.00;95198.91;10512739;28;2009;-64
2024/01/01 08:13:33;;;;;;;;;;;;;;;3.47;100.00;95198.41;10510024;28;1917;-64
2024/01/01 08:18:35;;;;;;;;;;;;;;;3.51;100.00;95200.34;10510681;28;2063;-64
2024/01/01 08:23:38;;;;;;;;;;;;;;;3.56;100.00;95191.63;10509706;28;2283;-64
2024/01/01 08:28:41;;;;;;;;;;;;;;;3.60;100.00;95198.09;10513857;28;2191;-64
2024/01/01 08:33:43;;;;;;;;;;;;;;;3.69;100.00;95204.63;10534756;28;2005;-65
2024/01/01 08:38:46;;;;;;;;;;;;;;;3.76;100.00;95202.59;10550879;28;2447;-64
2024/01/01 08:43:56;;;;;;;;;;;;;;;3.87;100.00;95197.38;10529250;28;1993;-64
2024/01/01 08:48:59;;;;;;;;;;;;;;;3.93;100.00;95197.22;10529961;28;2081;-68
2024/01/01 08:54:03;;;;;;;;;;;;;;;3.95;100.00;95204.97;10521222;28;2057;-66
2024/01/01 08:59:05;;;;;;;;;;;;;;;4.06;100.00;95212.00;10527467;28;4873;-64
2024/01/01 09:04:08;;;;;;;;;;;;;;;4.18;100.00;95212.69;10523769;28;1959;-64
2024/01/01 09:09:10;;;;;;;;;;;;;;;4.27;100.00;95213.91;10530223;28;2141;-65
2024/01/01 09:14:13;;;;;;;;;;;;;;;4.31;100.00;95212.31;10518869;28;1981;-65
2024/01/01 09:19:15;;;;;;;;;;;;;;;4.42;100.00;95204.47;10517845;28;1947;-68
2024/01/01 09:24:17;;;;;;;;;;;;;;;4.50;100.00;95207.50;10525035;28;1993;-65
2024/01/01 09:29:20;;;;;;;;;;;;;;;4.60;100.00;95217.47;10524825;28;2085;-64
2024/01/01 09:34:22;;;;;;;;;;;;;;;4.69;100.00;95221.28;10524969;28;1947;-65
2024/01/01 09:39:25;;;;;;;;;;;;;;;4.76;100.00;95224.53;10521469;28;1987;-65
2024/01/01 09:44:27;;;;;;;;;;;;;;;4.93;100.00;95221.00;10523965;28;1887;-65
2024/01/01 09:49:30;;;;;;;;;;;;;;;5.03;100.00;95224.56;10532248;28;2007;-71
2024/01/01 09:54:33;;;;;;;;;;;;;;;5.17;100.00;95219.63;10516417;28;2172;-70
2024/01/01 09:59:36;;;;;;;;;;;;;;;5.45;100.00;95223.06;10519930;28;5034;-64
2024/01/01 10:04:40;;;;;;;;;;;;;;;5.81;100.00;95211.59;10521849;28;1914;-66
2024/01/01 10:09:43;;;;;;;;;;;;;;;5.99;100.00;95223.75;10523923;28;2107;-63
2024/01/01 10:14:46;;;;;;;;;;;;;;;6.28;100.00;95210.81;10525816;28;2077;-65
2024/01/01 10:19:49;;;;;;;;;;;;;;;6.54;100.00;95221.59;10503763;28;2318;-65
2024/01/01 10:24:53;;;;;;;;;;;;;;;6.57;100.00;95221.09;10516403;28;2250;-65
2024/01/01 10:29:55;;;;;;;;;;;;;;;6.56;100.00;95219.50;10520268;28;2422;-65
2024/01/01 10:34:58;;;;;;;;;;;;;;;6.59;100.00;95214.41;10523444;28;2115;-63
2024/01/01 10:40:05;;;;;;;;;;;;;;;6.63;100.00;95201.34;10525567;28;1937;-65
2024/01/01 10:45:08;;;;;;;;;;;;;;;6.60;100.00;95202.66;10520396;28;1989;-66
2024/01/01 10:50:12;;;;;;;;;;;;;;;6.54;100.00;95219.72;10524399;28;1987;-66
2024/01/01 10:55:15;;;;;;;;;;;;;;;6.27;100.00;95213.75;10521309;28;1945;-64
2024/01/01 11:00:17;;;;;;;;;;;;;;;5.97;100.00;95215.97;10519764;28;5093;-65
2024/01/01 11:05:20;;;;;;;;;;;;;;;5.55;100.00;95215.97;10520274;28;1916;-64
2024/01/01 11:10:22;;;;;;;;;;;;;;;5.36;100.00;95214.75;10519668;28;2114;-64
2024/01/01 11:15:29;;;;;;;;;;;;;;;5.22;100.00;95219.69;10524700;28;2413;-66
2024/01/01 11:20:32;;;;;;;;;;;;;;;5.20;100.00;95237.78;10514577;28;1963;-63
2024/01/01 11:25:34;;;;;;;;;;;;;;;5.23;100.00;95231.16;10525028;28;1912;-63
2024/01/01 11:30:37;;;;;;;;;;;;;;;5.37;100.00;95232.34;10516674;28;2133;-65
2024/01/01 11:35:39;;;;;;;;;;;;;;;5.37;100.00;95217.13;10517803;28;2384;-64
2024/01/01 11:40:42;;;;;;;;;;;;;;;5.33;100.00;95226.69;10510019;28;2097;-64
2024/01/01 11:45:45;;;;;;;;;;;;;;;5.36;100.00;95226.19;10519874;28;1937;-64
2024/01/01 11:51:01;;;;;;;;;;;;;;;5.37;100.00;95221.66;10518571;28;2021;-63
2024/01/01 11:56:04;;;;;;;;;;;;;;;5.44;100.00;95208.94;10520237;28;5094;-64
2024/01/01 12:01:06;;;;;;;;;;;;;;;5.49;100.00;95208.19;10518730;28;2510;-64
2024/01/01 12:06:09;;;;;;;;;;;;;;;5.59;100.00;95205.56;10517051;28;2043;-65
2024/01/01 12:11:12;;;;;;;;;;;;;;;5.60;100.00;95204.53;10517190;28;1914;-64
2024/01/01 12:16:14;;;;;;;;;;;;;;;5.65;100.00;95191.22;10526263;28;1939;-63
2024/01/01 12:21:17;;;;;;;;;;;;;;;5.74;100.00;95179.03;10527670;28;2017;-64
2024/01/01 12:26:19;;;;;;;;;;;;;;;5.80;100.00;95202.00;10525515;28;2081;-66
2024/01/01 12:31:22;;;;;;;;;;;;;;;5.84;100.00;95203.06;10527624;28;2022;-68
2024/01/01 12:36:25;;;;;;;;;;;;;;;5.77;100.00;95213.16;10523678;28;1913;-66
2024/01/01 12:41:28;;;;;;;;;;;;;;;5.83;100.00;95193.47;10520030;28;2422;-65
2024/01/01 12:46:30;;;;;;;;;;;;;;;5.69;100.00;95208.31;10531240;28;2156;-65
2024/01/01 12:51:33;;;;;;;;;;;;;;;5.57;100.00;95205.81;10525067;28;2065;-66
2024/01/01 12:56:36;;;;;;;;;;;;;;;5.60;100.00;95204.53;10528278;28;5113;-65
2024/01/01 13:01:38;;;;;;;;;;;;;;;5.58;100.00;95202.09;10519269;28;1930;-65
2024/01/01 13:06:41;;;;;;;;;;;;;;;5.58;100.00;95202.09;10529168;28;1967;-64
2024/01/01 13:11:44;;;;;;;;;;;;;;;5.53;100.00;95198.59;10525609;28;2094;-65
2024/01/01 13:16:48;;;;;;;;;;;;;;;5.53;100.00;95201.25;10525309;28;2020;-64
2024/01/01 13:21:50;;;;;;;;;;;;;;;5.53;100.00;95204.72;10517549;28;1903;-63
2024/01/01 13:26:53;;;;;;;;;;;;;;;5.66;100.00;95200.81;10519775;28;2341;-62
2024/01/01 13:31:55;;;;;;;;;;;;;;;5.71;100.00;95195.53;10522855;28;1975;-64
2024/01/01 13:36:58;;;;;;;;;;;;;;;5.80;100.00;95193.19;10525442;28;1998;-65
2024/01/01 13:42:00;;;;;;;;;;;;;;;5.72;100.00;95186.47;10518238;28;1904;-65
2024/01/01 13:47:03;;;;;;;;;;;;;;;5.79;100.00;95186.22;10521258;28;2134;-64
2024/01/01 13:52:06;;;;;;;;;;;;;;;5.82;100.00;95191.88;10517899;28;2045;-65
2024/01/01 13:57:08;;;;;;;;;;;;;;;5.76;100.00;95190.22;10521104;28;4880;-65
2024/01/01 14:02:11;;;;;;;;;;;;;;;5.78;100.00;95198.75;10520916;28;2269;-67
2024/01/01 14:07:14;;;;;;;;;;;;;;;5.74;100.00;95195.03;10499088;28;2011;-67
2024/01/01 14:12:17;;;;;;;;;;;;;;;5.75;100.00;95193.97;10517452;28;2280;-65
2024/01/01 14:17:19;;;;;;;;;;;;;;;5.67;100.00;95189.13;10525998;28;1998;-65
2024/01/01 14:22:22;;;;;;;;;;;;;;;5.62;100.00;95202.41;10516466;28;2390;-64
2024/01/01 14:27:25;;;;;;;;;;;;;;;5.63;100.00;95212.00;10527866;28;1920;-64
2024/01/01 14:32:28;;;;;;;;;;;;;;;5.58;100.00;95202.09;10524311;28;2152;-64
2024/01/01 14:37:31;;;;;;;;;;;;;;;5.51;100.00;95222.03;10521421;28;2196;-64
2024/01/01 14:42:33;;;;;;;;;;;;;;;5.52;100.00;95220.97;10516458;28;1884;-63
2024/01/01 14:47:37;;;;;;;;;;;;;;;5.45;100.00;95220.41;10522441;28;2265;-63
2024/01/01 14:52:42;;;;;;;;;;;;;;;5.48;100.00;95217.25;10521580;28;1981;-70
2024/01/01 14:57:45;;;;;;;;;;;;;;;5.41;100.00;95215.59;10516566;28;5090;-71
2024/01/01 15:02:47;;;;;;;;;;;;;;;5.26;100.00;95210.13;10521800;28;1895;-67
2024/01/01 15:07:53;;;;;;;;;;;;;;;5.12;100.00;95220.38;10516557;28;2054;-65
2024/01/01 15:12:55;;;;;;;;;;;;;;;5.08;100.00;95229.94;10516550;28;1973;-63
2024/01/01 15:17:58;;;;;;;;;;;;;;;5.09;100.00;95238.72;10519952;28;1964;-66
2024/01/01 15:23:01;;;;;;;;;;;;;;;5.22;100.00;95253.53;10518303;28;1942;-75
2024/01/01 15:28:03;;;;;;;;;;;;;;;5.21;100.00;95254.56;10515371;28;2003;-65
2024/01/01 15:38:50;;;;;;;;;;;;;;;4.96;100.00;95269.22;10488802;28;3812;-68
2024/01/01 15:43:52;;;;;;;;;;;;;;;4.86;100.00;95285.91;10542123;28;2073;-65
2024/01/01 15:48:56;;;;;;;;;;;;;;;4.72;100.00;95283.91;10539639;28;2136;-65
2024/01/01 15:53:58;;;;;;;;;;;;;;;4.63;100.00;95280.03;10548665;28;2128;-65
2024/01/01 15:59:01;;;;;;;;;;;;;;;4.50;100.00;95283.88;10554788;27;1915;-64
2024/01/01 16:04:03;;;;;;;;;;;;;;;4.37;100.00;95287.69;10556713;28;2104;-63
2024/01/01 16:09:06;;;;;;;;;;;;;;;4.38;100.00;95291.16;10552754;28;2119;-65
2024/01/01 16:14:09;;;;;;;;;;;;;;;4.37;100.00;95298.34;10552411;28;2120;-64
2024/01/01 16:19:11;;;;;;;;;;;;;;;4.38;100.00;95315.13;10551194;27;2252;-68
2024/01/01 16:24:25;;;;;;;;;;;;;;;4.29;100.00;95312.88;10549067;27;2008;-65
2024/01/01 16:29:27;;;;;;;;;;;;;;;4.30;100.00;95311.84;10553238;27;2085;-64
2024/01/01 16:34:30;;;;;;;;;;;;;;;4.30;100.00;95309.16;10546844;28;2041;-67
2024/01/01 16:39:33;;;;;;;;;;;;;;;4.31;100.00;95310.78;10551626;28;2272;-65
2024/01/01 16:44:35;;;;;;;;;;;;;;;4.29;100.00;95312.88;10566300;27;2100;-65
2024/01/01 16:49:38;;;;;;;;;;;;;;;4.25;100.00;95319.72;10548982;27;2013;-64
2024/01/01 16:54:40;;;;;;;;;;;;;;;4.26;100.00;95313.38;10553714;28;1984;-64
2024/01/01 16:59:42;;;;;;;;;;;;;;;4.20;100.00;95325.00;10539879;27;5156;-65
2024/01/01 17:04:45;;;;;;;;;;;;;;;4.17;100.00;95345.97;10549071;27;1929;-63
2024/01/01 17:09:47;;;;;;;;;;;;;;;4.11;100.00;95347.72;10541497;28;2045;-65
2024/01/01 17:14:50;;;;;;;;;;;;;;;4.09;100.00;95344.53;10543552;28;2015;-66
2024/01/01 17:19:53;;;;;;;;;;;;;;;4.03;100.00;95350.81;10544027;28;2486;-64
2024/01/01 17:24:55;;;;;;;;;;;;;;;4.04;100.00;95341.78;10553846;27;1937;-65
2024/01/01 17:29:57;;;;;;;;;;;;;;;3.98;100.00;95353.38;10551418;28;1983;-64
2024/01/01 17:35:00;;;;;;;;;;;;;;;4.07;100.00;95351.91;10546673;27;2061;-63
2024/01/01 17:40:03;;;;;;;;;;;;;;;4.03;100.00;95348.94;10544310;28;1967;-65
2024/01/01 17:45:05;;;;;;;;;;;;;;;4.03;100.00;95356.13;10549208;27;1935;-64
2024/01/01 17:50:08;;;;;;;;;;;;;;;3.93;100.00;95362.09;10547099;28;1934;-65
2024/01/01 17:55:12;;;;;;;;;;;;;;;3.94;100.00;95368.19;10543573;28;1990;-64
2024/01/01 18:00:15;;;;;;;;;;;;;;;3.90;100.00;95372.41;10543520;28;2033;-66
2024/01/01 18:05:18;;;;;;;;;;;;;;;3.99;100.00;95378.94;10545443;27;2012;-64
2024/01/01 18:10:21;;;;;;;;;;;;;;;4.02;100.00;95375.81;10539093;28;1971;-65
2024/01/01 18:15:24;;;;;;;;;;;;;;;4.01;100.00;95379.50;10555608;27;2359;-68
2024/01/01 18:20:26;;;;;;;;;;;;;;;4.00;100.00;95377.88;10548128;28;2172;-63
2024/01/01 18:25:29;;;;;;;;;;;;;;;4.01;100.00;95380.31;10539641;28;1950;-64
2024/01/01 18:30:31;;;;;;;;;;;;;;;3.98;100.00;95385.28;10543282;28;2111;-63
2024/01/01 18:35:34;;;;;;;;;;;;;;;3.99;100.00;95387.72;10546808;28;2059;-64
2024/01/01 18:40:41;;;;;;;;;;;;;;;3.97;100.00;95394.31;10541645;28;1960;-65
2024/01/01 18:45:43;;;;;;;;;;;;;;;4.01;100.00;95395.47;10545085;28;1901;-65
2024/01/01 18:50:46;;;;;;;;;;;;;;;3.90;100.00;95410.44;10545007;28;2053;-67
2024/01/01 18:55:49;;;;;;;;;;;;;;;3.87;100.00;95399.47;10545485;28;5192;-66
2024/01/01 19:00:51;;;;;;;;;;;;;;;3.80;100.00;95411.06;10549645;27;2526;-65
2024/01/01 19:05:54;;;;;;;;;;;;;;;3.83;100.00;95411.66;10549355;28;1848;-65
2024/01/01 19:10:56;;;;;;;;;;;;;;;3.89;100.00;95398.19;10557025;28;1439;-65
2024/01/01 19:16:00;;;;;;;;;;;;;;;3.77;100.00;95398.25;10556611;28;1981;-65
2024/01/01 19:21:03;;;;;;;;;;;;;;;3.73;100.00;95399.78;10548723;28;1909;-64
2024/01/01 19:26:07;;;;;;;;;;;;;;;3.74;100.00;95396.06;10555753;28;1542;-66
2024/01/01 19:31:10;;;;;;;;;;;;;;;3.72;100.00;95392.84;10558955;28;2156;-65
2024/01/01 19:36:13;;;;;;;;;;;;;;;3.78;100.00;95393.75;10560414;28;1906;-64
2024/01/01 19:41:15;;;;;;;;;;;;;;;3.88;100.00;95398.41;10557720;28;2473;-66
2024/01/01 19:46:17;;;;;;;;;;;;;;;3.86;100.00;95390.69;10555718;28;2072;-66
2024/01/01 19:51:20;;;;;;;;;;;;;;;3.89;100.00;95389.41;10551302;28;1579;-65
2024/01/01 19:56:22;;;;;;;;;;;;;;;3.87;100.00;95388.84;10556469;28;5000;-66
2024/01/01 20:01:25;;;;;;;;;;;;;;;3.72;100.00;95387.53;10560080;28;1471;-70
2024/01/01 20:06:27;;;;;;;;;;;;;;;3.63;100.00;95398.81;10553810;28;1508;-65
2024/01/01 20:11:30;;;;;;;;;;;;;;;3.58;100.00;95396.06;10553976;28;1976;-66
2024/01/01 20:16:32;;;;;;;;;;;;;;;3.50;100.00;95394.59;10549937;28;1538;-65
2024/01/01 20:21:35;;;;;;;;;;;;;;;3.48;100.00;95394.81;10559089;28;1877;-66
2024/01/01 20:26:37;;;;;;;;;;;;;;;3.47;100.00;95400.38;10558510;28;2566;-66
2024/01/01 20:31:40;;;;;;;;;;;;;;;3.43;100.00;95399.22;10543444;28;1910;-68
2024/01/01 20:36:42;;;;;;;;;;;;;;;3.43;100.00;95401.88;10565396;28;1602;-67
2024/01/01 20:41:45;;;;;;;;;;;;;;;3.47;100.00;95389.75;10573619;27;1228;-71
2024/01/01 20:46:47;;;;;;;;;;;;;;;3.50;100.00;95383.97;10567360;27;1816;-67
2024/01/01 20:51:50;;;;;;;;;;;;;;;3.50;100.00;95383.97;10551263;28;1910;-64
2024/01/01 20:56:53;;;;;;;;;;;;;;;3.53;100.00;95381.63;10562390;27;5037;-64
2024/01/01 21:01:55;;;;;;;;;;;;;;;3.48;100.00;95376.22;10561346;27;1522;-65
2024/01/01 21:06:58;;;;;;;;;;;;;;;3.48;100.00;95378.06;10552304;28;1654;-66
2024/01/01 21:12:00;;;;;;;;;;;;;;;3.57;100.00;95368.69;10559620;27;2039;-64
2024/01/01 21:17:03;;;;;;;;;;;;;;;3.63;100.00;95359.75;10568244;27;1306;-69
2024/01/01 21:22:05;;;;;;;;;;;;;;;3.69;100.00;95348.16;10550880;28;1862;-63
2024/01/01 21:27:08;;;;;;;;;;;;;;;3.74;100.00;95344.75;10573054;27;1552;-67
2024/01/01 21:32:10;;;;;;;;;;;;;;;3.78;100.00;95333.41;10568050;27;1961;-63
2024/01/01 21:37:12;;;;;;;;;;;;;;;3.80;100.00;95347.25;10555847;28;2829;-65
2024/01/01 21:42:15;;;;;;;;;;;;;;;3.75;100.00;95339.22;10554716;27;2092;-66
2024/01/01 21:47:18;;;;;;;;;;;;;;;3.77;100.00;95329.13;10536817;28;1874;-64
2024/01/01 21:52:21;;;;;;;;;;;;;;;3.79;100.00;95326.22;10566204;28;2010;-65
2024/01/01 21:57:23;;;;;;;;;;;;;;;3.83;100.00;95318.59;10555778;28;4879;-66
2024/01/01 22:02:27;;;;;;;;;;;;;;;3.84;100.00;95325.50;10559573;28;1900;-65
2024/01/01 22:07:30;;;;;;;;;;;;;;;3.78;100.00;95317.44;10553798;28;2060;-65
2024/01/01 22:12:32;;;;;;;;;;;;;;;3.74;100.00;95311.00;10552260;28;2031;-68
2024/01/01 22:17:34;;;;;;;;;;;;;;;3.62;100.00;95302.28;10555624;27;2006;-68
2024/01/01 22:22:37;;;;;;;;;;;;;;;3.53;100.00;95307.22;10552491;28;2268;-67
2024/01/01 22:27:40;;;;;;;;;;;;;;;3.45;100.00;95301.50;10548191;27;1884;-65
2024/01/01 22:32:42;;;;;;;;;;;;;;;3.32;100.00;95285.88;10541969;28;1962;-65
2024/01/01 22:37:45;;;;;;;;;;;;;;;3.19;100.00;95282.47;10548664;28;2033;-65
2024/01/01 22:42:48;;;;;;;;;;;;;;;3.09;100.00;95276.97;10544590;27;2066;-63
2024/01/01 22:47:51;;;;;;;;;;;;;;;3.07;100.00;95284.38;10556323;27;2217;-66
2024/01/01 22:52:54;;;;;;;;;;;;;;;3.04;100.00;95278.72;10556390;27;2073;-65
2024/01/01 22:57:57;;;;;;;;;;;;;;;2.90;100.00;95273.69;10545014;28;4989;-64
2024/01/01 23:02:59;;;;;;;;;;;;;;;2.77;100.00;95267.88;10555470;28;1950;-65
2024/01/01 23:08:02;;;;;;;;;;;;;;;2.62;100.00;95277.16;10543770;27;2091;-64
2024/01/01 23:13:04;;;;;;;;;;;;;;;2.51;100.00;95275.34;10546190;27;1905;-64
2024/01/01 23:18:07;;;;;;;;;;;;;;;2.52;100.00;95265.53;10547395;28;1888;-63
2024/01/01 23:23:09;;;;;;;;;;;;;;;2.56;100.00;95272.00;10543415;28;1990;-66
2024/01/01 23:28:13;;;;;;;;;;;;;;;2.64;100.00;95259.16;10527643;27;2150;-65
2024/01/01 23:33:15;;;;;;;;;;;;;;;2.66;100.00;95257.06;10544042;28;2144;-65
2024/01/01 23:38:18;;;;;;;;;;;;;;;2.60;100.00;95252.69;10526085;28;2039;-63
2024/01/01 23:43:20;;;;;;;;;;;;;;;2.57;100.00;95253.19;10546389;28;2419;-64
2024/01/01 23:48:24;;;;;;;;;;;;;;;2.57;100.00;95242.56;10547047;28;1933;-64
2024/01/01 23:53:26;;;;;;;;;;;;;;;2.53;100.00;95240.59;10540998;28;1990;-65
2024/01/01 23:58:29;;;;;;;;;;;;;;;2.58;100.00;95243.38;10542852;28;5080;-71
